Time;durP1;ratioP1;P1;durP2;ratioP2;P2;SDS_P1;SDS_P2;PMS_P1;PMS_P2;Temp;Humidity;BMP_temperature;BMP_pressure;BME280_temperature;BME280_humidity;BME280_pressure;Samples;Min_cycle;Max_cycle;Signal;HPM_P1;HPM_P2
2021/01/29 00:00:38;;;;;;;2.22;0.52;;;4.80;67.30;;;;;;5028007;28;20044;-77
2021/01/29 00:03:06;;;;;;;1.35;0.73;;;4.80;67.30;;;;;;5018575;28;20522;-74
2021/01/29 00:05:38;;;;;;;1.50;0.77;;;4.80;67.30;;;;;;5027391;28;20076;-77
2021/01/29 00:08:03;;;;;;;1.85;0.80;;;4.80;67.30;;;;;;5024419;28;20040;-75
2021/01/29 00:10:29;;;;;;;5.60;0.90;;;4.80;67.30;;;;;;5027850;28;20425;-76
2021/01/29 00:12:56;;;;;;;1.35;0.68;;;4.80;67.30;;;;;;5027994;28;20030;-76
2021/01/29 00:15:21;;;;;;;1.63;0.68;;;4.70;67.20;;;;;;5028918;28;20403;-75
2021/01/29 00:17:47;;;;;;;1.13;0.75;;;4.80;67.30;;;;;;5016290;28;20059;-74
2021/01/29 00:20:16;;;;;;;2.78;1.42;;;4.70;67.30;;;;;;5028081;28;20029;-77
2021/01/29 00:22:41;;;;;;;0.82;0.80;;;4.70;67.30;;;;;;5022961;28;20041;-75
2021/01/29 00:25:09;;;;;;;0.77;0.70;;;4.80;67.30;;;;;;5027967;28;20025;-74
2021/01/29 00:27:36;;;;;;;1.52;0.90;;;4.70;67.20;;;;;;5027621;28;20045;-74
2021/01/29 00:30:03;;;;;;;0.98;0.82;;;4.70;67.20;;;;;;5028000;28;20053;-75
2021/01/29 00:32:28;;;;;;;0.93;0.70;;;4.70;67.30;;;;;;5017347;28;20034;-75
2021/01/29 00:34:54;;;;;;;1.35;0.70;;;4.70;67.40;;;;;;5031704;28;20554;-76
2021/01/29 00:37:19;;;;;;;1.50;0.70;;;4.70;67.40;;;;;;5029474;28;20041;-75
2021/01/29 00:39:45;;;;;;;1.27;0.80;;;4.70;67.40;;;;;;5030420;28;20568;-75
2021/01/29 00:42:10;;;;;;;1.75;0.85;;;4.70;67.30;;;;;;5031649;28;20033;-74
2021/01/29 00:44:36;;;;;;;1.58;0.90;;;4.70;67.30;;;;;;5031297;28;20034;-74
2021/01/29 00:47:01;;;;;;;2.45;1.02;;;4.80;67.40;;;;;;5022607;28;20406;-75
2021/01/29 00:49:27;;;;;;;1.35;0.73;;;4.70;67.30;;;;;;5014412;28;20038;-76
2021/01/29 00:51:53;;;;;;;2.15;0.80;;;4.70;67.30;;;;;;5031841;28;20029;-75
2021/01/29 00:54:18;;;;;;;2.03;0.93;;;4.70;67.30;;;;;;5027885;28;20391;-74
2021/01/29 00:56:44;;;;;;;2.28;1.05;;;4.80;67.30;;;;;;5031132;28;20450;-75
2021/01/29 00:59:09;;;;;;;1.27;0.70;;;4.80;67.30;;;;;;5031884;28;20076;-78
2021/01/29 01:01:35;;;;;;;1.23;0.70;;;5.00;67.50;;;;;;5023695;28;20569;-74
2021/01/29 01:04:00;;;;;;;1.00;0.80;;;4.80;67.40;;;;;;5032064;28;20116;-76
2021/01/29 01:06:26;;;;;;;1.88;0.80;;;4.80;67.30;;;;;;5031757;28;20045;-75
2021/01/29 01:08:51;;;;;;;2.25;0.98;;;4.80;67.30;;;;;;5028783;28;20120;-72
2021/01/29 01:11:17;;;;;;;1.75;0.80;;;4.80;67.10;;;;;;5031606;28;20052;-73
2021/01/29 01:13:43;;;;;;;1.67;0.80;;;4.90;67.10;;;;;;5030668;28;20026;-75
2021/01/29 01:16:08;;;;;;;0.95;0.88;;;4.90;67.60;;;;;;5030864;28;20042;-74
2021/01/29 01:18:34;;;;;;;3.22;0.70;;;4.80;67.10;;;;;;5024211;28;20042;-75
2021/01/29 01:20:59;;;;;;;5.38;1.48;;;4.80;67.10;;;;;;5027507;28;20022;-75
2021/01/29 01:23:25;;;;;;;1.65;1.13;;;4.80;67.00;;;;;;5027403;28;20091;-74
2021/01/29 01:25:51;;;;;;;2.33;0.70;;;4.80;67.10;;;;;;5023651;28;20053;-75
2021/01/29 01:28:16;;;;;;;1.15;1.00;;;4.80;67.10;;;;;;5031317;28;20037;-75
2021/01/29 01:30:42;;;;;;;1.10;0.93;;;4.80;67.10;;;;;;5028644;28;20175;-75
2021/01/29 01:33:09;;;;;;;0.90;0.60;;;4.80;67.10;;;;;;5020196;28;20040;-76
2021/01/29 01:35:34;;;;;;;2.72;0.70;;;4.80;67.20;;;;;;5011269;28;20145;-75
2021/01/29 01:38:01;;;;;;;0.95;0.80;;;4.80;67.10;;;;;;4990257;28;20120;-74
2021/01/29 01:40:30;;;;;;;1.90;0.98;;;4.90;67.10;;;;;;5003581;28;20050;-75
2021/01/29 01:42:56;;;;;;;1.55;0.77;;;4.90;67.10;;;;;;5012809;28;20040;-75
2021/01/29 01:45:28;;;;;;;0.80;0.60;;;4.90;67.10;;;;;;5002354;28;20030;-72
2021/01/29 01:48:11;;;;;;;0.63;0.63;;;4.80;66.90;;;;;;5008615;28;20083;-76
2021/01/29 01:50:42;;;;;;;1.85;1.30;;;4.80;66.70;;;;;;5015136;28;20128;-75
2021/01/29 01:53:18;;;;;;;;;;;4.80;67.00;;;;;;5012601;28;20060;-73
2021/01/29 01:55:44;;;;;;;1.02;0.70;;;4.80;66.40;;;;;;5015706;28;20407;-73
2021/01/29 01:58:11;;;;;;;2.13;0.98;;;4.80;66.80;;;;;;5014358;28;20034;-74
2021/01/29 02:00:36;;;;;;;0.75;0.60;;;4.80;66.90;;;;;;5011100;28;20515;-75
2021/01/29 02:03:06;;;;;;;1.15;0.75;;;4.80;67.00;;;;;;5004325;28;20049;-74
2021/01/29 02:05:36;;;;;;;0.90;0.70;;;4.80;67.00;;;;;;5010062;28;20026;-73
2021/01/29 02:08:10;;;;;;;1.38;0.60;;;4.80;67.00;;;;;;5012688;28;20037;-73
2021/01/29 02:10:36;;;;;;;2.50;1.52;;;4.80;66.90;;;;;;5009236;28;20033;-74
2021/01/29 02:13:04;;;;;;;0.95;0.60;;;4.80;67.00;;;;;;5008479;28;20030;-72
2021/01/29 02:15:36;;;;;;;1.60;0.68;;;4.80;67.00;;;;;;5010479;28;20045;-75
2021/01/29 02:18:28;;;;;;;1.02;0.65;;;4.80;67.00;;;;;;5011072;28;20049;-73
2021/01/29 02:21:25;;;;;;;0.80;0.50;;;4.80;66.80;;;;;;5007473;28;20030;-74
2021/01/29 02:24:09;;;;;;;1.00;0.70;;;4.70;66.80;;;;;;5008797;28;20545;-73
2021/01/29 02:26:57;;;;;;;1.17;0.68;;;4.80;67.20;;;;;;5008198;28;20042;-75
2021/01/29 02:29:52;;;;;;;0.70;0.55;;;4.70;66.80;;;;;;5010128;28;20036;-75
2021/01/29 02:32:47;;;;;;;0.95;0.80;;;4.80;67.00;;;;;;5008704;28;20045;-74
2021/01/29 02:35:18;;;;;;;1.20;0.77;;;4.80;66.90;;;;;;5012068;28;20030;-73
2021/01/29 02:37:50;;;;;;;1.65;0.70;;;4.70;67.10;;;;;;5024948;28;20113;-75
2021/01/29 02:40:23;;;;;;;1.05;0.82;;;4.80;67.20;;;;;;5005391;28;20022;-74
2021/01/29 02:43:17;;;;;;;4.10;1.27;;;4.80;67.20;;;;;;5009990;28;20034;-73
2021/01/29 02:46:01;;;;;;;1.48;0.93;;;4.80;67.00;;;;;;5009182;28;20129;-75
2021/01/29 02:48:53;;;;;;;1.35;0.80;;;4.70;66.80;;;;;;5019127;28;20396;-73
2021/01/29 02:51:33;;;;;;;2.65;0.95;;;4.80;67.00;;;;;;5017585;28;20030;-74
2021/01/29 02:54:21;;;;;;;1.88;1.15;;;4.80;66.80;;;;;;5015633;28;20037;-75
2021/01/29 02:57:09;;;;;;;1.85;0.85;;;4.70;66.60;;;;;;5028886;28;20113;-75
2021/01/29 02:59:39;;;;;;;1.73;0.80;;;4.70;66.80;;;;;;5029371;28;20044;-74
2021/01/29 03:02:32;;;;;;;1.73;1.08;;;4.70;66.90;;;;;;5012640;28;20049;-75
2021/01/29 03:05:04;;;;;;;1.02;0.80;;;4.70;66.60;;;;;;5004810;28;20029;-75
2021/01/29 03:07:40;;;;;;;2.55;1.45;;;4.60;66.90;;;;;;5025156;28;20026;-76
2021/01/29 03:10:16;;;;;;;1.48;1.00;;;4.60;66.90;;;;;;5026696;28;20117;-76
2021/01/29 03:12:55;;;;;;;2.15;1.00;;;4.70;67.00;;;;;;5008713;28;20030;-75
2021/01/29 03:15:35;;;;;;;1.00;0.77;;;4.70;66.90;;;;;;5009203;28;20423;-74
2021/01/29 03:18:27;;;;;;;0.93;0.70;;;4.70;66.90;;;;;;5002321;28;20045;-74
2021/01/29 03:21:20;;;;;;;1.45;0.90;;;4.70;66.80;;;;;;5021523;28;20326;-75
2021/01/29 03:23:51;;;;;;;1.95;1.00;;;4.70;66.80;;;;;;5002045;28;20133;-74
2021/01/29 03:26:25;;;;;;;2.05;1.25;;;4.70;67.00;;;;;;5009540;28;20528;-75
2021/01/29 03:28:55;;;;;;;2.70;1.05;;;4.70;67.00;;;;;;5008584;28;20058;-74
2021/01/29 03:31:23;;;;;;;1.55;1.05;;;4.60;67.00;;;;;;5001039;28;20052;-73
2021/01/29 03:34:02;;;;;;;2.55;1.33;;;4.70;67.10;;;;;;5009311;28;20057;-72
2021/01/29 03:36:31;;;;;;;1.58;0.73;;;4.60;67.00;;;;;;5017145;28;20536;-73
2021/01/29 03:39:07;;;;;;;1.27;0.93;;;4.60;67.10;;;;;;5024728;28;20438;-73
2021/01/29 03:41:40;;;;;;;1.92;1.10;;;4.60;67.10;;;;;;5012545;28;20057;-74
2021/01/29 03:44:20;;;;;;;1.10;0.93;;;4.60;67.10;;;;;;5014753;28;20029;-74
2021/01/29 03:47:11;;;;;;;1.77;0.90;;;4.70;67.20;;;;;;5028158;28;20410;-74
2021/01/29 03:50:03;;;;;;;1.20;1.00;;;4.60;67.00;;;;;;5005274;28;20045;-76
2021/01/29 03:52:34;;;;;;;1.48;1.00;;;4.60;67.00;;;;;;5000935;28;20037;-76
2021/01/29 03:55:21;;;;;;;0.95;0.75;;;4.60;67.00;;;;;;5025592;28;20386;-75
2021/01/29 03:58:07;;;;;;;1.35;0.77;;;4.60;67.40;;;;;;5005951;28;20023;-75
2021/01/29 04:00:42;;;;;;;1.83;1.00;;;4.60;67.00;;;;;;5019492;28;20080;-77
2021/01/29 04:03:53;;;;;;;1.90;1.27;;;4.60;67.10;;;;;;5023186;28;20076;-75
2021/01/29 04:06:25;;;;;;;1.17;1.05;;;4.60;67.10;;;;;;4911910;29;20533;-74
2021/01/29 04:09:01;;;;;;;1.48;1.15;;;4.50;67.20;;;;;;4998654;28;20037;-74
2021/01/29 04:11:49;;;;;;;1.88;1.25;;;4.60;67.20;;;;;;5025041;28;20520;-74
2021/01/29 04:16:58;;;;;;;1.23;0.82;;;4.60;67.30;;;;;;5018448;28;20048;-75
2021/01/29 04:19:27;;;;;;;1.95;1.17;;;4.50;67.30;;;;;;5027201;28;20043;-73
2021/01/29 04:21:58;;;;;;;1.55;1.38;;;4.60;67.40;;;;;;5031814;28;20030;-73
2021/01/29 04:24:30;;;;;;;3.13;1.92;;;4.60;67.30;;;;;;5025154;28;20030;-72
2021/01/29 04:27:05;;;;;;;2.30;1.75;;;4.60;67.30;;;;;;5031179;28;20034;-72
2021/01/29 04:29:36;;;;;;;2.20;1.80;;;4.60;67.30;;;;;;5022876;28;20040;-72
2021/01/29 04:32:09;;;;;;;2.15;1.83;;;4.50;67.30;;;;;;5028534;28;20036;-71
2021/01/29 04:34:39;;;;;;;2.50;1.70;;;4.60;67.40;;;;;;5023714;28;20133;-73
2021/01/29 04:37:10;;;;;;;2.10;1.20;;;4.60;67.40;;;;;;5038259;28;20451;-72
2021/01/29 04:39:49;;;;;;;2.67;1.65;;;4.50;67.40;;;;;;5039438;28;20123;-72
2021/01/29 04:42:52;;;;;;;1.67;1.40;;;4.60;67.40;;;;;;5019231;28;20033;-72
2021/01/29 04:45:53;;;;;;;2.72;1.80;;;4.60;67.30;;;;;;5020702;28;20038;-72
2021/01/29 04:48:31;;;;;;;1.77;1.40;;;4.50;67.80;;;;;;5031890;28;20554;-72
2021/01/29 04:51:17;;;;;;;3.75;2.00;;;4.50;67.30;;;;;;5021779;28;20025;-72
2021/01/29 04:54:20;;;;;;;3.22;2.00;;;4.50;67.40;;;;;;5017433;28;20034;-72
2021/01/29 04:57:25;;;;;;;1.75;1.45;;;4.50;67.50;;;;;;5021498;28;20057;-72
2021/01/29 05:00:23;;;;;;;3.08;1.42;;;4.50;67.50;;;;;;5027847;28;20045;-73
2021/01/29 05:03:20;;;;;;;2.13;1.40;;;4.70;67.70;;;;;;5024799;28;20033;-72
2021/01/29 05:06:15;;;;;;;1.73;1.35;;;4.60;67.70;;;;;;5013792;28;20037;-73
2021/01/29 05:08:53;;;;;;;2.80;1.52;;;4.50;67.70;;;;;;5014648;28;20124;-71
2021/01/29 05:12:01;;;;;;;3.03;1.60;;;4.50;67.70;;;;;;5011756;28;20100;-72
2021/01/29 05:14:38;;;;;;;2.90;1.42;;;4.50;67.70;;;;;;4980531;28;20056;-72
2021/01/29 05:17:06;;;;;;;2.65;1.77;;;4.60;67.70;;;;;;5010125;28;20033;-71
2021/01/29 05:20:09;;;;;;;2.28;1.60;;;4.60;67.60;;;;;;5012401;28;20032;-71
2021/01/29 05:22:50;;;;;;;2.15;1.52;;;4.60;67.60;;;;;;4987630;28;20095;-71
2021/01/29 05:25:52;;;;;;;3.22;1.67;;;4.50;68.00;;;;;;5033590;28;20470;-71
2021/01/29 05:28:36;;;;;;;2.03;1.45;;;4.60;67.60;;;;;;5010932;28;20021;-72
2021/01/29 05:31:20;;;;;;;3.13;1.67;;;4.60;67.60;;;;;;5007305;28;20050;-72
2021/01/29 05:34:10;;;;;;;2.00;1.20;;;4.60;67.60;;;;;;5011959;28;20049;-71
2021/01/29 05:37:06;;;;;;;2.17;1.45;;;4.60;67.60;;;;;;5015470;28;20033;-72
2021/01/29 05:40:09;;;;;;;2.78;1.30;;;4.50;67.40;;;;;;5029008;28;20524;-72
2021/01/29 05:42:45;;;;;;;1.70;1.48;;;4.50;67.30;;;;;;5030912;28;20049;-71
2021/01/29 05:45:16;;;;;;;3.00;1.50;;;4.50;67.40;;;;;;5000609;28;20498;-71
2021/01/29 05:48:26;;;;;;;2.25;1.42;;;4.50;67.40;;;;;;5015658;28;20124;-72
2021/01/29 05:51:09;;;;;;;2.33;1.75;;;4.50;67.40;;;;;;4968237;28;20463;-72
2021/01/29 05:54:08;;;;;;;1.85;1.10;;;4.50;67.30;;;;;;5004757;28;20038;-73
2021/01/29 05:57:14;;;;;;;2.53;1.55;;;4.50;67.40;;;;;;5031893;28;20067;-73
2021/01/29 05:59:51;;;;;;;2.75;1.58;;;4.50;67.30;;;;;;5007146;28;20033;-73
2021/01/29 06:02:46;;;;;;;1.98;1.30;;;4.40;67.30;;;;;;5024377;28;20104;-73
2021/01/29 06:05:43;;;;;;;1.77;1.20;;;4.50;67.30;;;;;;5026988;28;20032;-73
2021/01/29 06:08:26;;;;;;;1.95;1.10;;;4.40;67.30;;;;;;5013872;28;20088;-72
2021/01/29 06:10:52;;;;;;;3.30;1.20;;;4.40;67.30;;;;;;5010946;28;20037;-73
2021/01/29 06:13:55;;;;;;;1.73;1.13;;;4.40;67.40;;;;;;5034205;28;20035;-74
2021/01/29 06:16:45;;;;;;;2.75;1.30;;;4.40;67.40;;;;;;5019286;28;20044;-73
2021/01/29 06:19:32;;;;;;;1.13;0.80;;;4.30;67.30;;;;;;5014924;28;20042;-73
2021/01/29 06:22:27;;;;;;;1.92;1.30;;;4.30;67.30;;;;;;5023110;28;20037;-73
2021/01/29 06:25:25;;;;;;;1.70;1.15;;;4.30;67.30;;;;;;5008475;28;20029;-74
2021/01/29 06:28:28;;;;;;;1.27;0.85;;;4.20;67.20;;;;;;5016996;28;20042;-73
2021/01/29 06:31:31;;;;;;;2.10;1.40;;;4.20;67.20;;;;;;5005386;28;20029;-73
2021/01/29 06:33:56;;;;;;;2.08;1.17;;;4.20;67.20;;;;;;5009027;28;20314;-74
2021/01/29 06:36:49;;;;;;;4.50;1.30;;;4.20;67.20;;;;;;5019629;28;20048;-74
2021/01/29 06:39:47;;;;;;;1.70;1.25;;;4.10;67.30;;;;;;5001893;28;20436;-74
2021/01/29 06:42:29;;;;;;;2.15;1.08;;;4.10;67.50;;;;;;5009301;28;20025;-73
2021/01/29 06:45:21;;;;;;;0.98;0.85;;;4.10;67.60;;;;;;5005836;28;20124;-74
2021/01/29 06:48:05;;;;;;;1.50;1.13;;;4.00;67.70;;;;;;4995357;28;20156;-74
2021/01/29 06:50:38;;;;;;;1.50;1.20;;;4.00;67.70;;;;;;5030211;28;20045;-74
2021/01/29 06:53:16;;;;;;;2.92;1.80;;;4.00;67.60;;;;;;5007214;28;21675;-74
2021/01/29 06:56:18;;;;;;;1.27;1.00;;;4.10;68.30;;;;;;5008830;28;20452;-73
2021/01/29 06:59:21;;;;;;;2.25;1.05;;;4.00;67.70;;;;;;5011166;28;20033;-73
2021/01/29 07:01:56;;;;;;;1.92;1.20;;;4.00;67.80;;;;;;5007126;28;20474;-74
2021/01/29 07:04:37;;;;;;;3.10;1.52;;;4.00;67.70;;;;;;5016847;28;20021;-76
2021/01/29 07:07:17;;;;;;;1.77;1.48;;;3.90;67.70;;;;;;5009946;28;20072;-75
2021/01/29 07:10:06;;;;;;;2.27;1.50;;;3.90;67.90;;;;;;5030229;28;20037;-75
2021/01/29 07:12:43;;;;;;;1.85;1.15;;;3.90;68.00;;;;;;5030478;28;20029;-74
2021/01/29 07:15:35;;;;;;;1.67;1.30;;;3.90;68.50;;;;;;5020441;28;20064;-74
2021/01/29 07:18:23;;;;;;;2.25;1.10;;;4.00;68.60;;;;;;5015089;28;20055;-78
2021/01/29 07:21:10;;;;;;;2.03;1.20;;;3.90;68.40;;;;;;5028558;28;20100;-74
2021/01/29 07:23:39;;;;;;;2.30;1.20;;;4.00;68.20;;;;;;5024567;28;20041;-75
2021/01/29 07:26:16;;;;;;;2.22;1.15;;;4.00;68.30;;;;;;5021781;28;20051;-74
2021/01/29 07:28:44;;;;;;;1.58;0.98;;;4.00;68.20;;;;;;5008404;28;20044;-75
2021/01/29 07:31:22;;;;;;;1.55;1.25;;;4.00;68.80;;;;;;5000889;28;20498;-74
2021/01/29 07:34:05;;;;;;;2.22;1.27;;;4.00;68.20;;;;;;4991435;28;20668;-74
2021/01/29 07:37:04;;;;;;;1.65;1.10;;;4.00;68.10;;;;;;5002452;28;20533;-74
2021/01/29 07:40:08;;;;;;;1.85;1.20;;;4.00;68.10;;;;;;5009757;28;20113;-74
2021/01/29 07:43:03;;;;;;;1.58;1.30;;;4.00;68.10;;;;;;5026726;28;20037;-74
2021/01/29 07:45:35;;;;;;;2.83;1.33;;;4.00;68.00;;;;;;5022418;28;20061;-73
2021/01/29 07:48:40;;;;;;;1.65;1.00;;;4.00;68.00;;;;;;5021812;28;20029;-74
2021/01/29 07:51:35;;;;;;;1.38;1.13;;;4.00;68.10;;;;;;5022064;28;20052;-77
2021/01/29 07:54:30;;;;;;;2.33;1.40;;;4.00;68.10;;;;;;5020828;28;20068;-73
2021/01/29 07:57:10;;;;;;;1.85;1.23;;;4.00;68.20;;;;;;5027080;28;20030;-73
2021/01/29 07:59:54;;;;;;;1.73;1.00;;;4.10;68.10;;;;;;5026592;28;20029;-73
2021/01/29 08:02:38;;;;;;;1.70;1.20;;;4.00;68.10;;;;;;5017929;28;20129;-73
2021/01/29 08:05:13;;;;;;;2.20;1.60;;;4.00;68.20;;;;;;5021772;28;20083;-74
2021/01/29 08:07:45;;;;;;;3.17;1.40;;;3.90;68.20;;;;;;5026655;28;20026;-74
2021/01/29 08:10:32;;;;;;;2.10;1.25;;;3.90;68.10;;;;;;5027838;28;20029;-74
2021/01/29 08:13:13;;;;;;;2.33;1.30;;;4.00;68.30;;;;;;5025035;28;20018;-74
2021/01/29 08:15:56;;;;;;;1.35;0.98;;;4.00;68.30;;;;;;5026908;28;20073;-74
2021/01/29 08:18:46;;;;;;;2.67;1.50;;;4.00;68.30;;;;;;5025568;28;20030;-74
2021/01/29 08:21:49;;;;;;;1.73;1.27;;;4.00;68.60;;;;;;5022208;28;20045;-74
2021/01/29 08:24:46;;;;;;;2.15;1.38;;;4.00;68.50;;;;;;5022425;28;20087;-74
2021/01/29 08:27:43;;;;;;;2.10;1.30;;;4.00;68.40;;;;;;5022247;28;20037;-73
2021/01/29 08:30:33;;;;;;;1.40;1.10;;;4.10;68.50;;;;;;5022002;28;20025;-75
2021/01/29 08:33:26;;;;;;;1.10;0.90;;;4.10;68.50;;;;;;5026033;28;20025;-74
2021/01/29 08:36:10;;;;;;;1.60;1.13;;;4.00;68.60;;;;;;5025520;28;20029;-74
2021/01/29 08:38:46;;;;;;;1.02;0.90;;;4.10;68.70;;;;;;5024990;28;20037;-74
2021/01/29 08:41:35;;;;;;;1.45;1.08;;;4.10;68.50;;;;;;5019490;28;20426;-75
2021/01/29 08:44:14;;;;;;;1.38;1.10;;;4.10;68.50;;;;;;5018367;28;20087;-74
2021/01/29 08:47:13;;;;;;;1.13;0.88;;;4.10;68.60;;;;;;5023067;28;20402;-74
2021/01/29 08:50:07;;;;;;;1.58;1.20;;;4.10;68.60;;;;;;5019949;28;20117;-74
2021/01/29 08:52:52;;;;;;;1.40;1.23;;;4.10;68.60;;;;;;4994660;28;20042;-74
2021/01/29 08:55:38;;;;;;;1.08;0.95;;;4.10;68.50;;;;;;5023285;28;20091;-74
2021/01/29 08:58:23;;;;;;;1.88;1.23;;;4.20;68.50;;;;;;5024815;28;20478;-73
2021/01/29 09:00:56;;;;;;;2.55;1.17;;;4.20;68.60;;;;;;5030400;28;20599;-73
2021/01/29 09:03:33;;;;;;;2.50;1.17;;;4.20;68.60;;;;;;5023609;28;20041;-75
2021/01/29 09:06:15;;;;;;;1.35;1.00;;;4.20;68.70;;;;;;5024353;28;20091;-75
2021/01/29 09:08:41;;;;;;;1.67;1.10;;;4.20;68.60;;;;;;5029557;28;20044;-74
2021/01/29 09:11:42;;;;;;;1.77;1.40;;;4.10;68.50;;;;;;5028374;28;20037;-74
2021/01/29 09:14:37;;;;;;;1.83;1.33;;;4.20;68.70;;;;;;5026050;28;20500;-74
2021/01/29 09:17:07;;;;;;;1.55;1.00;;;4.20;68.60;;;;;;5018878;28;20061;-75
2021/01/29 09:19:36;;;;;;;1.05;0.88;;;4.30;68.60;;;;;;5028874;28;20033;-76
2021/01/29 09:22:21;;;;;;;2.90;1.50;;;4.20;68.50;;;;;;5025779;28;20049;-74
2021/01/29 09:25:10;;;;;;;1.70;1.00;;;4.30;68.60;;;;;;5023827;28;20045;-76
2021/01/29 09:27:47;;;;;;;1.58;0.98;;;4.20;68.50;;;;;;5021912;28;20088;-75
2021/01/29 09:30:19;;;;;;;1.63;0.98;;;4.30;68.60;;;;;;5022942;28;20526;-74
2021/01/29 09:33:00;;;;;;;1.65;1.23;;;4.30;68.60;;;;;;5022170;28;20059;-75
2021/01/29 09:35:40;;;;;;;1.50;1.20;;;4.30;68.70;;;;;;5018305;28;20041;-74
2021/01/29 09:38:10;;;;;;;2.47;1.35;;;4.40;68.70;;;;;;5021294;28;20041;-74
2021/01/29 09:40:53;;;;;;;1.63;1.35;;;4.30;68.70;;;;;;5020499;28;20041;-74
2021/01/29 09:43:38;;;;;;;1.60;1.42;;;4.30;68.70;;;;;;5022460;28;20403;-74
2021/01/29 09:46:04;;;;;;;1.85;1.30;;;4.40;68.70;;;;;;5022116;28;20033;-74
2021/01/29 09:48:30;;;;;;;3.65;2.00;;;4.30;68.70;;;;;;5018928;28;20517;-74
2021/01/29 09:51:04;;;;;;;3.33;1.70;;;4.30;68.70;;;;;;5025146;28;20033;-74
2021/01/29 09:53:35;;;;;;;3.33;1.50;;;4.30;68.70;;;;;;5022765;28;20033;-74
2021/01/29 09:56:17;;;;;;;;;;;4.40;68.70;;;;;;5025493;28;20029;-75
2021/01/29 09:59:07;;;;;;;2.08;1.67;;;4.30;69.00;;;;;;5025781;28;19916;-74
2021/01/29 10:01:40;;;;;;;2.50;1.60;;;4.40;68.80;;;;;;5025362;28;20038;-75
2021/01/29 10:04:39;;;;;;;2.30;1.50;;;4.40;68.70;;;;;;5023926;28;20046;-75
2021/01/29 10:07:10;;;;;;;2.58;2.13;;;4.40;68.80;;;;;;5008062;28;20034;-74
2021/01/29 10:09:47;;;;;;;3.35;2.30;;;4.40;68.80;;;;;;5023172;28;20047;-75
2021/01/29 10:12:22;;;;;;;2.72;2.30;;;4.40;68.90;;;;;;5022608;28;20029;-75
2021/01/29 10:14:56;;;;;;;3.17;2.63;;;4.40;68.90;;;;;;5022001;28;20159;-75
2021/01/29 10:17:33;;;;;;;3.28;2.38;;;4.50;69.10;;;;;;5022383;28;20626;-74
2021/01/29 10:20:07;;;;;;;3.00;2.38;;;4.40;69.20;;;;;;5018524;28;20029;-75
2021/01/29 10:23:04;;;;;;;3.33;2.70;;;4.50;69.10;;;;;;5021892;28;20491;-75
2021/01/29 10:25:35;;;;;;;2.85;1.80;;;4.40;69.20;;;;;;5025687;28;20033;-75
2021/01/29 10:28:38;;;;;;;4.63;2.28;;;4.50;69.10;;;;;;5018365;28;20033;-75
2021/01/29 10:31:07;;;;;;;2.63;2.13;;;4.40;69.00;;;;;;4975388;28;20017;-75
2021/01/29 10:33:42;;;;;;;2.38;2.03;;;4.50;68.90;;;;;;5016715;28;20037;-75
2021/01/29 10:36:13;;;;;;;3.47;2.40;;;4.50;69.00;;;;;;5033905;22;20158;-72
2021/01/29 10:39:00;;;;;;;3.05;1.80;;;4.50;68.90;;;;;;5019248;28;20048;-75
2021/01/29 10:41:59;;;;;;;2.65;2.03;;;4.50;69.10;;;;;;5020614;28;20033;-73
2021/01/29 10:44:28;;;;;;;3.00;2.10;;;4.50;69.10;;;;;;5012045;28;20572;-72
2021/01/29 10:47:03;;;;;;;3.20;2.35;;;4.50;68.90;;;;;;5023960;28;20030;-73
2021/01/29 10:49:47;;;;;;;2.75;2.25;;;4.50;69.00;;;;;;5034748;28;20049;-73
2021/01/29 10:52:19;;;;;;;3.13;2.38;;;4.60;69.20;;;;;;5018293;28;20087;-72
2021/01/29 10:54:45;;;;;;;3.40;2.10;;;4.50;68.90;;;;;;5024066;28;20042;-72
2021/01/29 10:57:16;;;;;;;2.20;1.75;;;4.50;69.00;;;;;;5025208;28;20044;-71
2021/01/29 10:59:47;;;;;;;4.00;2.60;;;4.50;69.10;;;;;;5024489;28;20038;-74
2021/01/29 11:02:39;;;;;;;3.88;2.55;;;4.60;69.20;;;;;;5025663;28;20033;-70
2021/01/29 11:05:14;;;;;;;2.92;2.20;;;4.50;69.20;;;;;;5018773;28;20017;-73
2021/01/29 11:07:43;;;;;;;2.67;1.75;;;4.50;69.10;;;;;;5021484;28;20026;-73
2021/01/29 11:10:21;;;;;;;3.55;2.25;;;4.60;69.10;;;;;;5021221;28;20430;-75
2021/01/29 11:13:07;;;;;;;3.10;2.03;;;4.60;69.20;;;;;;5020706;28;20033;-71
2021/01/29 11:15:37;;;;;;;3.25;2.30;;;4.60;69.30;;;;;;5021327;28;20633;-72
2021/01/29 11:18:08;;;;;;;1.58;1.48;;;4.60;69.10;;;;;;5019025;28;20029;-70
2021/01/29 11:20:37;;;;;;;3.10;2.03;;;4.50;69.00;;;;;;5012544;28;20364;-73
2021/01/29 11:23:06;;;;;;;1.48;1.30;;;4.60;69.10;;;;;;5014345;28;20124;-70
2021/01/29 11:25:45;;;;;;;2.28;1.70;;;4.60;69.10;;;;;;5022468;28;20030;-72
2021/01/29 11:28:30;;;;;;;2.40;1.80;;;4.60;69.50;;;;;;5015800;28;20136;-73
2021/01/29 11:31:18;;;;;;;2.58;1.75;;;4.60;69.20;;;;;;5019246;28;20107;-71
2021/01/29 11:33:48;;;;;;;1.70;1.38;;;4.70;69.20;;;;;;5019632;28;20042;-72
2021/01/29 11:36:29;;;;;;;2.38;1.77;;;4.60;69.10;;;;;;5010436;28;20625;-73
2021/01/29 11:39:13;;;;;;;1.42;1.13;;;4.70;69.20;;;;;;4998668;28;20099;-74
2021/01/29 11:42:06;;;;;;;2.22;1.88;;;4.60;69.10;;;;;;5008021;28;20033;-75
2021/01/29 11:44:38;;;;;;;2.78;2.20;;;4.70;69.20;;;;;;5001698;28;20112;-73
2021/01/29 11:47:41;;;;;;;3.08;2.10;;;4.60;69.10;;;;;;4999404;28;20033;-74
2021/01/29 11:50:14;;;;;;;3.97;2.10;;;4.70;69.20;;;;;;4971293;28;20559;-73
2021/01/29 11:52:57;;;;;;;3.60;2.22;;;4.70;69.00;;;;;;5004442;28;20030;-74
2021/01/29 11:55:28;;;;;;;5.45;2.13;;;4.70;69.10;;;;;;5001309;28;20037;-73
2021/01/29 11:58:25;;;;;;;2.88;1.85;;;4.70;69.00;;;;;;5009175;28;20092;-77
2021/01/29 12:01:03;;;;;;;4.45;2.03;;;4.70;69.10;;;;;;5007176;28;20030;-74
2021/01/29 12:03:59;;;;;;;2.53;1.75;;;4.70;69.00;;;;;;4998617;28;20041;-75
2021/01/29 12:06:43;;;;;;;2.90;1.63;;;4.70;69.00;;;;;;5000810;28;20502;-76
2021/01/29 12:09:12;;;;;;;3.20;2.17;;;4.70;69.10;;;;;;5005547;28;20052;-76
2021/01/29 12:11:43;;;;;;;1.95;1.42;;;4.70;69.00;;;;;;5016707;28;20487;-75
2021/01/29 12:14:24;;;;;;;1.80;1.30;;;4.70;69.10;;;;;;5027185;28;20124;-76
2021/01/29 12:16:59;;;;;;;1.92;1.48;;;4.80;69.10;;;;;;5017973;28;20032;-75
2021/01/29 12:19:42;;;;;;;1.58;1.20;;;4.70;69.10;;;;;;5020206;28;20060;-76
2021/01/29 12:22:22;;;;;;;3.45;1.80;;;4.70;69.10;;;;;;5021108;28;20534;-76
2021/01/29 12:25:20;;;;;;;2.85;1.42;;;4.70;69.00;;;;;;5026657;28;20580;-79
2021/01/29 12:27:54;;;;;;;2.92;1.40;;;4.70;69.20;;;;;;5007717;28;20033;-74
2021/01/29 12:30:39;;;;;;;2.78;1.48;;;4.70;69.00;;;;;;5027676;28;20056;-77
2021/01/29 12:33:12;;;;;;;1.90;1.38;;;4.70;69.10;;;;;;5015365;28;20091;-75
2021/01/29 12:35:57;;;;;;;2.30;1.25;;;4.70;69.10;;;;;;5026650;28;20494;-77
2021/01/29 12:38:43;;;;;;;1.77;1.23;;;4.70;69.10;;;;;;5026016;28;20048;-76
2021/01/29 12:41:32;;;;;;;1.73;1.17;;;4.70;69.10;;;;;;5018155;28;20465;-78
2021/01/29 12:44:16;;;;;;;1.95;1.20;;;4.70;69.10;;;;;;5023420;28;20048;-74
2021/01/29 12:46:56;;;;;;;1.08;0.80;;;4.70;69.60;;;;;;5019466;28;20062;-78
2021/01/29 12:49:37;;;;;;;1.35;0.90;;;4.70;69.10;;;;;;5024227;28;20030;-78
2021/01/29 12:52:21;;;;;;;;;;;4.60;69.00;;;;;;5022873;28;20033;-76
2021/01/29 12:55:05;;;;;;;1.48;1.00;;;4.70;69.40;;;;;;5025441;28;19968;-75
2021/01/29 12:57:32;;;;;;;2.13;0.98;;;4.70;69.00;;;;;;5025292;28;20075;-77
2021/01/29 13:00:28;;;;;;;2.05;1.02;;;4.80;69.00;;;;;;5024558;28;20082;-74
2021/01/29 13:03:20;;;;;;;1.48;1.20;;;4.70;69.20;;;;;;5017957;28;20120;-77
2021/01/29 13:05:56;;;;;;;2.83;1.63;;;4.70;69.20;;;;;;5025717;28;20033;-77
2021/01/29 13:08:42;;;;;;;1.38;0.98;;;4.70;69.10;;;;;;5025271;28;20033;-76
2021/01/29 13:11:18;;;;;;;0.95;0.85;;;4.70;69.20;;;;;;5021394;28;20106;-76
2021/01/29 13:14:08;;;;;;;0.73;0.60;;;4.60;69.10;;;;;;5023315;28;20041;-74
2021/01/29 13:17:17;;;;;;;1.15;0.85;;;4.70;69.10;;;;;;5024486;28;20408;-74
2021/01/29 13:19:45;;;;;;;1.00;0.88;;;4.60;69.20;;;;;;5004416;28;20051;-73
2021/01/29 13:22:20;;;;;;;2.45;0.90;;;4.70;69.00;;;;;;5025942;28;20128;-81
2021/01/29 13:25:10;;;;;;;0.73;0.60;;;4.70;69.10;;;;;;5024795;28;20066;-76
2021/01/29 13:27:42;;;;;;;0.73;0.65;;;4.60;69.20;;;;;;5023450;28;20037;-73
2021/01/29 13:30:16;;;;;;;0.77;0.77;;;4.60;69.00;;;;;;5024552;28;20030;-75
2021/01/29 13:32:42;;;;;;;1.23;0.68;;;4.50;69.00;;;;;;5014295;28;20040;-74
2021/01/29 13:35:10;;;;;;;0.93;0.55;;;4.60;69.00;;;;;;5025144;28;20025;-76
2021/01/29 13:37:37;;;;;;;0.80;0.68;;;4.60;69.10;;;;;;5023583;28;20038;-75
2021/01/29 13:40:15;;;;;;;1.25;1.00;;;4.60;69.00;;;;;;5027932;28;20061;-77
2021/01/29 13:42:42;;;;;;;1.45;1.00;;;4.60;69.10;;;;;;5021342;28;20507;-75
2021/01/29 13:45:13;;;;;;;1.52;1.13;;;4.50;68.90;;;;;;5029753;28;20045;-74
2021/01/29 13:47:43;;;;;;;1.77;1.00;;;4.50;69.00;;;;;;5025770;28;20041;-77
2021/01/29 13:50:30;;;;;;;1.23;0.82;;;4.60;69.00;;;;;;5027392;28;20037;-75
2021/01/29 13:52:59;;;;;;;1.02;0.93;;;4.50;69.00;;;;;;5026475;28;20033;-76
2021/01/29 13:55:38;;;;;;;1.42;1.00;;;4.60;69.10;;;;;;5030071;28;20034;-75
2021/01/29 13:58:17;;;;;;;1.40;0.88;;;4.50;69.20;;;;;;5025902;28;20119;-75
2021/01/29 14:00:54;;;;;;;1.40;1.20;;;4.60;69.30;;;;;;5017185;28;20550;-75
2021/01/29 14:03:28;;;;;;;1.33;0.85;;;4.50;69.20;;;;;;5026259;28;20048;-78
2021/01/29 14:05:54;;;;;;;1.90;0.90;;;4.50;69.10;;;;;;5028274;28;20026;-75